createdAt,value
2023-04-26T00:00:37.672Z,94867.00
2023-04-26T00:01:37.652Z,94869.00
2023-04-26T00:02:37.734Z,94865.00
2023-04-26T00:03:38.082Z,94871.00
2023-04-26T00:04:37.812Z,94865.00
2023-04-26T00:05:37.816Z,94865.00
2023-04-26T00:06:37.817Z,94865.00
2023-04-26T00:07:37.850Z,94865.00
2023-04-26T00:08:38.252Z,94863.00
2023-04-26T00:09:37.929Z,94865.00
2023-04-26T00:10:37.966Z,94865.00
2023-04-26T00:11:38.012Z,94865.00
2023-04-26T00:12:38.128Z,94867.00
2023-04-26T00:13:38.283Z,94865.00
2023-04-26T00:14:38.166Z,94865.00
2023-04-26T00:15:38.214Z,94867.00
2023-04-26T00:16:38.315Z,94867.00
2023-04-26T00:17:38.399Z,94865.00
2023-04-26T00:18:38.389Z,94865.00
2023-04-26T00:19:38.404Z,94867.00
2023-04-26T00:20:38.491Z,94865.00
2023-04-26T00:21:38.505Z,94867.00
2023-04-26T00:22:38.568Z,94869.00
2023-04-26T00:23:38.620Z,94869.00
2023-04-26T00:24:38.653Z,94869.00
2023-04-26T00:25:38.716Z,94873.00
2023-04-26T00:26:38.837Z,94871.00
2023-04-26T00:27:38.811Z,94873.00
2023-04-26T00:28:39.276Z,94871.00
2023-04-26T00:29:38.915Z,94871.00
2023-04-26T00:30:38.969Z,94871.00
2023-04-26T00:31:39.062Z,94867.00
2023-04-26T00:32:39.115Z,94871.00
2023-04-26T00:33:39.122Z,94871.00
2023-04-26T00:34:39.167Z,94871.00
2023-04-26T00:35:39.218Z,94871.00
2023-04-26T00:36:39.268Z,94871.00
2023-04-26T00:37:39.302Z,94871.00
2023-04-26T00:38:39.354Z,94871.00
2023-04-26T00:39:39.391Z,94869.00
2023-04-26T00:40:39.451Z,94869.00
2023-04-26T00:41:39.528Z,94869.00
2023-04-26T00:42:39.554Z,94869.00
2023-04-26T00:43:39.615Z,94869.00
2023-04-26T00:44:39.650Z,94869.00
2023-04-26T00:45:39.730Z,94867.00
2023-04-26T00:46:39.769Z,94869.00
2023-04-26T00:47:39.881Z,94867.00
2023-04-26T00:48:39.873Z,94867.00
2023-04-26T00:49:39.895Z,94867.00
2023-04-26T00:50:39.930Z,94865.00
2023-04-26T00:51:39.991Z,94865.00
2023-04-26T00:52:40.058Z,94863.00
2023-04-26T00:53:40.124Z,94862.00
2023-04-26T00:54:40.195Z,94856.00
2023-04-26T00:55:40.292Z,94858.00
2023-04-26T00:56:40.268Z,94854.00
2023-04-26T00:57:40.311Z,94852.00
2023-04-26T00:58:40.351Z,94852.00
2023-04-26T00:59:40.442Z,94852.00
2023-04-26T01:00:40.471Z,94852.00
2023-04-26T01:01:40.643Z,94852.00
2023-04-26T01:02:40.709Z,94854.00
2023-04-26T01:03:40.926Z,94854.00
2023-04-26T01:04:40.663Z,94856.00
2023-04-26T01:05:40.733Z,94854.00
2023-04-26T01:06:40.786Z,94850.00
2023-04-26T01:07:40.840Z,94854.00
2023-04-26T01:08:40.882Z,94852.00
2023-04-26T01:09:40.907Z,94852.00
2023-04-26T01:10:40.984Z,94852.00
2023-04-26T01:11:41.037Z,94850.00
2023-04-26T01:12:41.097Z,94850.00
2023-04-26T01:13:41.155Z,94848.00
2023-04-26T01:14:41.209Z,94846.00
2023-04-26T01:15:41.251Z,94848.00
2023-04-26T01:16:41.358Z,94848.00
2023-04-26T01:17:41.413Z,94850.00
2023-04-26T01:18:41.778Z,94850.00
2023-04-26T01:19:41.458Z,94848.00
2023-04-26T01:20:41.543Z,94846.00
2023-04-26T01:21:41.583Z,94844.00
2023-04-26T01:22:41.610Z,94844.00
2023-04-26T01:23:41.732Z,94844.00
2023-04-26T01:24:41.725Z,94844.00
2023-04-26T01:25:41.785Z,94844.00
2023-04-26T01:26:41.866Z,94844.00
2023-04-26T01:27:41.890Z,94844.00
2023-04-26T01:28:41.971Z,94846.00
2023-04-26T01:29:42.021Z,94846.00
2023-04-26T01:30:42.086Z,94850.00
2023-04-26T01:31:42.128Z,94846.00
2023-04-26T01:32:42.163Z,94850.00
2023-04-26T01:33:42.315Z,94848.00
2023-04-26T01:34:42.278Z,94848.00
2023-04-26T01:35:42.350Z,94848.00
2023-04-26T01:36:42.386Z,94848.00
2023-04-26T01:37:42.402Z,94850.00
2023-04-26T01:38:42.504Z,94848.00
2023-04-26T01:39:42.572Z,94852.00
2023-04-26T01:40:42.610Z,94852.00
2023-04-26T01:41:42.664Z,94852.00
2023-04-26T01:42:42.710Z,94852.00
2023-04-26T01:43:42.751Z,94852.00
2023-04-26T01:44:42.827Z,94854.00
2023-04-26T01:45:42.900Z,94854.00
2023-04-26T01:46:43.002Z,94856.00
2023-04-26T01:47:43.016Z,94858.00
2023-04-26T01:48:43.053Z,94856.00
2023-04-26T01:49:43.071Z,94858.00
2023-04-26T01:50:43.157Z,94858.00
2023-04-26T01:51:43.199Z,94858.00
2023-04-26T01:52:43.263Z,94858.00
2023-04-26T01:53:43.282Z,94860.00
2023-04-26T01:54:43.382Z,94863.00
2023-04-26T01:55:43.430Z,94863.00
2023-04-26T01:56:43.470Z,94858.00
2023-04-26T01:57:43.545Z,94860.00
2023-04-26T01:58:43.589Z,94860.00
2023-04-26T01:59:43.660Z,94860.00
2023-04-26T02:00:43.702Z,94865.00
2023-04-26T02:01:43.815Z,94860.00
2023-04-26T02:02:43.971Z,94862.00
2023-04-26T02:03:43.915Z,94862.00
2023-04-26T02:04:43.965Z,94860.00
2023-04-26T02:05:43.981Z,94860.00
2023-04-26T02:06:44.017Z,94867.00
2023-04-26T02:07:44.083Z,94863.00
2023-04-26T02:08:44.287Z,94865.00
2023-04-26T02:09:44.162Z,94871.00
2023-04-26T02:10:44.247Z,94865.00
2023-04-26T02:12:44.314Z,94867.00
2023-04-26T02:13:44.403Z,94863.00
2023-04-26T02:14:44.485Z,94865.00
2023-04-26T02:15:44.540Z,94865.00
2023-04-26T02:16:44.584Z,94865.00
2023-04-26T02:17:44.667Z,94867.00
2023-04-26T02:18:44.733Z,94865.00
2023-04-26T02:19:44.752Z,94862.00
2023-04-26T02:20:44.792Z,94865.00
2023-04-26T02:21:44.861Z,94863.00
2023-04-26T02:22:44.914Z,94862.00
2023-04-26T02:23:44.965Z,94862.00
2023-04-26T02:24:45.063Z,94862.00
2023-04-26T02:25:45.104Z,94860.00
2023-04-26T02:26:45.144Z,94860.00
2023-04-26T02:27:45.214Z,94863.00
2023-04-26T02:28:45.294Z,94858.00
2023-04-26T02:29:45.326Z,94858.00
2023-04-26T02:30:45.386Z,94856.00
2023-04-26T02:31:45.517Z,94856.00
2023-04-26T02:32:45.596Z,94854.00
2023-04-26T02:33:45.615Z,94858.00
2023-04-26T02:34:45.650Z,94856.00
2023-04-26T02:35:45.709Z,94856.00
2023-04-26T02:36:45.774Z,94856.00
2023-04-26T02:37:45.871Z,94858.00
2023-04-26T02:38:46.295Z,94858.00
2023-04-26T02:39:45.967Z,94860.00
2023-04-26T02:40:46.032Z,94856.00
2023-04-26T02:41:46.096Z,94858.00
2023-04-26T02:42:46.174Z,94860.00
2023-04-26T02:43:46.224Z,94858.00
2023-04-26T02:44:46.276Z,94858.00
2023-04-26T02:45:46.356Z,94858.00
2023-04-26T02:46:46.429Z,94862.00
2023-04-26T02:47:46.456Z,94860.00
2023-04-26T02:48:46.524Z,94862.00
2023-04-26T02:49:46.593Z,94862.00
2023-04-26T02:50:46.641Z,94860.00
2023-04-26T02:51:46.674Z,94856.00
2023-04-26T02:52:46.751Z,94858.00
2023-04-26T02:53:46.832Z,94856.00
2023-04-26T02:54:46.865Z,94854.00
2023-04-26T02:55:46.959Z,94856.00
2023-04-26T02:56:46.987Z,94852.00
2023-04-26T02:57:47.058Z,94852.00
2023-04-26T02:58:47.103Z,94852.00
2023-04-26T02:59:47.186Z,94850.00
2023-04-26T03:00:47.321Z,94850.00
2023-04-26T03:01:47.331Z,94850.00
2023-04-26T03:02:47.496Z,94850.00
2023-04-26T03:03:47.521Z,94850.00
2023-04-26T03:04:47.829Z,94848.00
2023-04-26T03:05:47.566Z,94846.00
2023-04-26T03:06:47.614Z,94848.00
2023-04-26T03:07:47.673Z,94846.00
2023-04-26T03:08:47.727Z,94844.00
2023-04-26T03:09:47.836Z,94848.00
2023-04-26T03:10:47.854Z,94848.00
2023-04-26T03:11:50.099Z,94850.00
2023-04-26T03:12:47.976Z,94852.00
2023-04-26T03:13:48.003Z,94850.00
2023-04-26T03:14:48.107Z,94850.00
2023-04-26T03:15:48.818Z,94848.00
2023-04-26T03:16:48.271Z,94846.00
2023-04-26T03:17:48.320Z,94848.00
2023-04-26T03:18:48.334Z,94844.00
2023-04-26T03:19:48.410Z,94846.00
2023-04-26T03:20:48.462Z,94848.00
2023-04-26T03:21:48.539Z,94846.00
2023-04-26T03:22:48.587Z,94850.00
2023-04-26T03:23:48.644Z,94850.00
2023-04-26T03:24:48.663Z,94848.00
2023-04-26T03:25:48.724Z,94846.00
2023-04-26T03:26:48.787Z,94848.00
2023-04-26T03:27:48.837Z,94848.00
2023-04-26T03:28:48.926Z,94848.00
2023-04-26T03:29:48.981Z,94850.00
2023-04-26T03:30:49.074Z,94850.00
2023-04-26T03:31:49.140Z,94850.00
2023-04-26T03:32:49.213Z,94852.00
2023-04-26T03:33:49.257Z,94854.00
2023-04-26T03:34:49.316Z,94854.00
2023-04-26T03:35:49.414Z,94856.00
2023-04-26T03:36:49.438Z,94856.00
2023-04-26T03:37:50.381Z,94856.00
2023-04-26T03:38:49.649Z,94856.00
2023-04-26T03:39:50.365Z,94854.00
2023-04-26T03:40:49.668Z,94854.00
2023-04-26T03:41:49.721Z,94856.00
2023-04-26T03:42:49.809Z,94856.00
2023-04-26T03:43:49.882Z,94856.00
2023-04-26T03:44:49.940Z,94858.00
2023-04-26T03:45:50.080Z,94858.00
2023-04-26T03:46:50.135Z,94856.00
2023-04-26T03:47:50.134Z,94854.00
2023-04-26T03:48:50.480Z,94852.00
2023-04-26T03:49:50.258Z,94856.00
2023-04-26T03:50:50.288Z,94858.00
2023-04-26T03:51:50.365Z,94856.00
2023-04-26T03:52:50.435Z,94858.00
2023-04-26T03:53:50.490Z,94858.00
2023-04-26T03:54:50.576Z,94860.00
2023-04-26T03:55:50.646Z,94856.00
2023-04-26T03:56:50.674Z,94854.00
2023-04-26T03:57:50.756Z,94854.00
2023-04-26T03:58:51.051Z,94858.00
2023-04-26T03:59:50.883Z,94860.00
2023-04-26T04:00:50.939Z,94862.00
2023-04-26T04:01:51.033Z,94862.00
2023-04-26T04:02:51.172Z,94863.00
2023-04-26T04:03:51.305Z,94863.00
2023-04-26T04:04:51.350Z,94865.00
2023-04-26T04:05:51.353Z,94865.00
2023-04-26T04:06:51.340Z,94867.00
2023-04-26T04:07:51.400Z,94867.00
2023-04-26T04:08:51.757Z,94867.00
2023-04-26T04:09:51.500Z,94871.00
2023-04-26T04:10:51.566Z,94869.00
2023-04-26T04:11:51.612Z,94873.00
2023-04-26T04:12:51.683Z,94873.00
2023-04-26T04:13:51.761Z,94871.00
2023-04-26T04:14:51.803Z,94873.00
2023-04-26T04:15:51.898Z,94869.00
2023-04-26T04:16:51.902Z,94871.00
2023-04-26T04:17:52.016Z,94871.00
2023-04-26T04:18:52.239Z,94873.00
2023-04-26T04:19:52.368Z,94873.00
2023-04-26T04:20:52.174Z,94879.00
2023-04-26T04:21:52.246Z,94881.00
2023-04-26T04:22:52.308Z,94879.00
2023-04-26T04:23:52.355Z,94877.00
2023-04-26T04:24:52.843Z,94879.00
2023-04-26T04:25:52.483Z,94881.00
2023-04-26T04:26:52.603Z,94879.00
2023-04-26T04:27:52.607Z,94881.00
2023-04-26T04:28:52.838Z,94883.00
2023-04-26T04:29:52.868Z,94883.00
2023-04-26T04:30:52.843Z,94883.00
2023-04-26T04:31:52.887Z,94883.00
2023-04-26T04:32:52.990Z,94879.00
2023-04-26T04:33:53.017Z,94883.00
2023-04-26T04:34:53.093Z,94885.00
2023-04-26T04:35:53.141Z,94883.00
2023-04-26T04:36:53.220Z,94883.00
2023-04-26T04:37:53.277Z,94883.00
2023-04-26T04:38:53.627Z,94879.00
2023-04-26T04:39:53.398Z,94883.00
2023-04-26T04:40:53.439Z,94885.00
2023-04-26T04:41:53.506Z,94885.00
2023-04-26T04:42:53.605Z,94893.00
2023-04-26T04:43:53.688Z,94893.00
2023-04-26T04:44:53.722Z,94897.00
2023-04-26T04:45:53.771Z,94895.00
2023-04-26T04:46:53.884Z,94895.00
2023-04-26T04:47:53.929Z,94893.00
2023-04-26T04:48:54.163Z,94895.00
2023-04-26T04:49:53.967Z,94895.00
2023-04-26T04:50:54.061Z,94901.00
2023-04-26T04:51:54.087Z,94899.00
2023-04-26T04:52:54.135Z,94901.00
2023-04-26T04:53:54.186Z,94901.00
2023-04-26T04:54:54.256Z,94905.00
2023-04-26T04:55:54.319Z,94907.00
2023-04-26T04:56:54.376Z,94908.00
2023-04-26T04:57:54.416Z,94908.00
2023-04-26T04:58:54.620Z,94908.00
2023-04-26T04:59:54.541Z,94908.00
2023-04-26T05:00:54.587Z,94910.00
2023-04-26T05:01:54.703Z,94912.00
2023-04-26T05:02:54.940Z,94912.00
2023-04-26T05:03:55.277Z,94914.00
2023-04-26T05:04:54.883Z,94916.00
2023-04-26T05:05:54.910Z,94916.00
2023-04-26T05:06:55.875Z,94916.00
2023-04-26T05:07:55.027Z,94916.00
2023-04-26T05:08:55.097Z,94918.00
2023-04-26T05:09:55.386Z,94918.00
2023-04-26T05:10:55.227Z,94918.00
2023-04-26T05:11:55.251Z,94918.00
2023-04-26T05:12:55.356Z,94920.00
2023-04-26T05:13:55.685Z,94920.00
2023-04-26T05:14:55.507Z,94920.00
2023-04-26T05:15:55.534Z,94924.00
2023-04-26T05:16:55.622Z,94922.00
2023-04-26T05:17:55.648Z,94922.00
2023-04-26T05:18:55.732Z,94922.00
2023-04-26T05:19:55.757Z,94920.00
2023-04-26T05:20:55.816Z,94922.00
2023-04-26T05:21:55.882Z,94922.00
2023-04-26T05:22:55.961Z,94922.00
2023-04-26T05:23:56.016Z,94922.00
2023-04-26T05:24:56.090Z,94922.00
2023-04-26T05:25:56.121Z,94924.00
2023-04-26T05:26:56.204Z,94924.00
2023-04-26T05:27:56.260Z,94922.00
2023-04-26T05:28:56.322Z,94926.00
2023-04-26T05:29:56.392Z,94924.00
2023-04-26T05:30:56.427Z,94924.00
2023-04-26T05:31:56.559Z,94924.00
2023-04-26T05:32:56.595Z,94928.00
2023-04-26T05:33:56.628Z,94928.00
2023-04-26T05:34:56.909Z,94932.00
2023-04-26T05:35:56.775Z,94926.00
2023-04-26T05:36:56.807Z,94934.00
2023-04-26T05:37:56.921Z,94930.00
2023-04-26T05:38:56.980Z,94934.00
2023-04-26T05:39:57.402Z,94934.00
2023-04-26T05:40:57.067Z,94936.00
2023-04-26T05:41:57.100Z,94936.00
2023-04-26T05:42:57.191Z,94934.00
2023-04-26T05:43:57.249Z,94938.00
2023-04-26T05:44:57.403Z,94936.00
2023-04-26T05:45:57.427Z,94938.00
2023-04-26T05:46:57.457Z,94940.00
2023-04-26T05:47:57.551Z,94938.00
2023-04-26T05:48:57.593Z,94940.00
2023-04-26T05:49:57.649Z,94938.00
2023-04-26T05:50:57.699Z,94938.00
2023-04-26T05:51:57.808Z,94936.00
2023-04-26T05:52:57.798Z,94936.00
2023-04-26T05:53:57.844Z,94934.00
2023-04-26T05:54:58.382Z,94938.00
2023-04-26T05:55:57.975Z,94940.00
2023-04-26T05:56:59.158Z,94940.00
2023-04-26T05:57:58.032Z,94940.00
2023-04-26T05:58:58.063Z,94940.00
2023-04-26T05:59:58.136Z,94942.00
2023-04-26T06:00:58.159Z,94944.00
2023-04-26T06:01:58.186Z,94944.00
2023-04-26T06:02:58.484Z,94944.00
2023-04-26T06:04:00.885Z,94948.00
2023-04-26T06:04:58.678Z,94944.00
2023-04-26T06:05:58.342Z,94950.00
2023-04-26T06:06:58.886Z,94950.00
2023-04-26T06:07:58.258Z,94950.00
2023-04-26T06:08:58.256Z,94954.00
2023-04-26T06:09:58.232Z,94952.00
2023-04-26T06:10:58.231Z,94952.00
2023-04-26T06:11:58.218Z,94952.00
2023-04-26T06:12:58.209Z,94955.00
2023-04-26T06:13:58.230Z,94952.00
2023-04-26T06:14:58.196Z,94952.00
2023-04-26T06:15:58.178Z,94950.00
2023-04-26T06:16:58.327Z,94955.00
2023-04-26T06:17:58.225Z,94955.00
2023-04-26T06:18:58.174Z,94955.00
2023-04-26T06:19:58.410Z,94955.00
2023-04-26T06:20:58.135Z,94954.00
2023-04-26T06:21:58.151Z,94959.00
2023-04-26T06:22:58.148Z,94959.00
2023-04-26T06:23:58.122Z,94955.00
2023-04-26T06:24:58.422Z,94955.00
2023-04-26T06:25:58.108Z,94954.00
2023-04-26T06:26:58.126Z,94955.00
2023-04-26T06:27:58.119Z,94955.00
2023-04-26T06:28:58.132Z,94952.00
2023-04-26T06:29:58.375Z,94952.00
2023-04-26T06:30:58.118Z,94957.00
2023-04-26T06:31:58.148Z,94952.00
2023-04-26T06:32:58.134Z,94957.00
2023-04-26T06:33:58.065Z,94955.00
2023-04-26T06:34:58.077Z,94955.00
2023-04-26T06:35:58.080Z,94959.00
2023-04-26T06:36:58.043Z,94961.00
2023-04-26T06:37:58.027Z,94961.00
2023-04-26T06:38:58.008Z,94959.00
2023-04-26T06:39:58.131Z,94959.00
2023-04-26T06:40:58.042Z,94959.00
2023-04-26T06:41:58.011Z,94961.00
2023-04-26T06:42:58.021Z,94959.00
2023-04-26T06:43:58.006Z,94959.00
2023-04-26T06:44:57.974Z,94961.00
2023-04-26T06:45:57.991Z,94961.00
2023-04-26T06:46:57.992Z,94963.00
2023-04-26T06:47:58.031Z,94965.00
2023-04-26T06:48:57.957Z,94965.00
2023-04-26T06:49:57.972Z,94967.00
2023-04-26T06:50:57.947Z,94963.00
2023-04-26T06:51:57.969Z,94961.00
2023-04-26T06:52:58.098Z,94961.00
2023-04-26T06:53:57.924Z,94959.00
2023-04-26T06:54:58.005Z,94961.00
2023-04-26T06:55:57.935Z,94961.00
2023-04-26T06:56:59.362Z,94959.00
2023-04-26T06:57:57.892Z,94959.00
2023-04-26T06:58:57.899Z,94961.00
2023-04-26T06:59:57.940Z,94955.00
2023-04-26T07:00:58.261Z,94952.00
2023-04-26T07:01:57.923Z,94954.00
2023-04-26T07:02:58.099Z,94952.00
2023-04-26T07:03:58.284Z,94952.00
2023-04-26T07:04:58.019Z,94948.00
2023-04-26T07:05:57.842Z,94948.00
2023-04-26T07:06:57.880Z,94948.00
2023-04-26T07:07:57.885Z,94944.00
2023-04-26T07:08:58.885Z,94944.00
2023-04-26T07:09:57.823Z,94944.00
2023-04-26T07:10:58.049Z,94944.00
2023-04-26T07:11:57.909Z,94942.00
2023-04-26T07:12:57.822Z,94946.00
2023-04-26T07:13:57.811Z,94948.00
2023-04-26T07:14:58.052Z,94948.00
2023-04-26T07:15:57.768Z,94950.00
2023-04-26T07:16:57.742Z,94952.00
2023-04-26T07:17:57.781Z,94950.00
2023-04-26T07:18:57.774Z,94950.00
2023-04-26T07:19:57.731Z,94948.00
2023-04-26T07:20:57.953Z,94938.00
2023-04-26T07:21:57.712Z,94948.00
2023-04-26T07:22:57.733Z,94946.00
2023-04-26T07:23:57.731Z,94942.00
2023-04-26T07:24:57.711Z,94942.00
2023-04-26T07:25:57.981Z,94942.00
2023-04-26T07:26:57.706Z,94944.00
2023-04-26T07:27:57.719Z,94944.00
2023-04-26T07:28:57.753Z,94944.00
2023-04-26T07:29:57.767Z,94944.00
2023-04-26T07:30:57.770Z,94950.00
2023-04-26T07:31:57.824Z,94946.00
2023-04-26T07:32:57.988Z,94944.00
2023-04-26T07:33:57.933Z,94944.00
2023-04-26T07:34:57.954Z,94944.00
2023-04-26T07:35:58.548Z,94946.00
2023-04-26T07:36:57.967Z,94948.00
2023-04-26T07:37:58.022Z,94946.00
2023-04-26T07:38:58.034Z,94942.00
2023-04-26T07:39:58.027Z,94946.00
2023-04-26T07:40:58.046Z,94940.00
2023-04-26T07:41:58.070Z,94942.00
2023-04-26T07:42:58.069Z,94942.00
2023-04-26T07:43:58.172Z,94936.00
2023-04-26T07:44:58.126Z,94932.00
2023-04-26T07:45:58.167Z,94930.00
2023-04-26T07:46:58.123Z,94934.00
2023-04-26T07:47:58.205Z,94932.00
2023-04-26T07:48:58.175Z,94936.00
2023-04-26T07:49:58.239Z,94934.00
2023-04-26T07:50:58.221Z,94942.00
2023-04-26T07:51:58.277Z,94936.00
2023-04-26T07:52:58.349Z,94936.00
2023-04-26T07:53:58.380Z,94940.00
2023-04-26T07:54:58.393Z,94940.00
2023-04-26T07:55:58.440Z,94938.00
2023-04-26T07:56:58.513Z,94944.00
2023-04-26T07:57:59.443Z,94936.00
2023-04-26T07:58:58.632Z,94936.00
2023-04-26T07:59:58.672Z,94940.00
2023-04-26T08:00:58.701Z,94936.00
2023-04-26T08:01:58.785Z,94942.00
2023-04-26T08:02:59.018Z,94940.00
2023-04-26T08:03:59.281Z,94938.00
2023-04-26T08:04:58.967Z,94938.00
2023-04-26T08:05:59.108Z,94938.00
2023-04-26T08:06:58.972Z,94942.00
2023-04-26T08:07:58.989Z,94940.00
2023-04-26T08:08:59.043Z,94942.00
2023-04-26T08:09:59.058Z,94940.00
2023-04-26T08:10:59.460Z,94936.00
2023-04-26T08:11:59.126Z,94940.00
2023-04-26T08:12:59.132Z,94936.00
2023-04-26T08:13:59.179Z,94936.00
2023-04-26T08:14:59.138Z,94936.00
2023-04-26T08:15:59.467Z,94932.00
2023-04-26T08:16:59.281Z,94934.00
2023-04-26T08:17:59.252Z,94932.00
2023-04-26T08:18:59.206Z,94926.00
2023-04-26T08:19:59.251Z,94924.00
2023-04-26T08:20:59.471Z,94922.00
2023-04-26T08:21:59.276Z,94918.00
2023-04-26T08:22:59.326Z,94922.00
2023-04-26T08:23:59.319Z,94922.00
2023-04-26T08:24:59.371Z,94922.00
2023-04-26T08:25:59.462Z,94926.00
2023-04-26T08:26:59.405Z,94924.00
2023-04-26T08:27:59.434Z,94918.00
2023-04-26T08:28:59.403Z,94920.00
2023-04-26T08:29:59.458Z,94916.00
2023-04-26T08:30:59.466Z,94918.00
2023-04-26T08:31:59.431Z,94918.00
2023-04-26T08:32:59.453Z,94914.00
2023-04-26T08:33:59.444Z,94910.00
2023-04-26T08:34:59.488Z,94908.00
2023-04-26T08:35:59.961Z,94912.00
2023-04-26T08:36:59.541Z,94912.00
2023-04-26T08:37:59.561Z,94910.00
2023-04-26T08:38:59.655Z,94907.00
2023-04-26T08:39:59.625Z,94908.00
2023-04-26T08:40:59.970Z,94908.00
2023-04-26T08:41:59.663Z,94910.00
2023-04-26T08:42:59.711Z,94908.00
2023-04-26T08:43:59.776Z,94907.00
2023-04-26T08:44:59.825Z,94907.00
2023-04-26T08:46:00.037Z,94903.00
2023-04-26T08:46:59.952Z,94905.00
2023-04-26T08:48:01.027Z,94905.00
2023-04-26T08:49:00.024Z,94903.00
2023-04-26T08:50:00.067Z,94907.00
2023-04-26T08:51:00.489Z,94901.00
2023-04-26T08:52:00.503Z,94903.00
2023-04-26T08:53:00.224Z,94907.00
2023-04-26T08:54:01.646Z,94903.00
2023-04-26T08:55:00.364Z,94901.00
2023-04-26T08:56:00.389Z,94895.00
2023-04-26T08:57:00.448Z,94895.00
2023-04-26T08:58:00.532Z,94899.00
2023-04-26T08:59:00.593Z,94885.00
2023-04-26T09:00:00.590Z,94881.00
2023-04-26T09:01:00.698Z,94883.00
2023-04-26T09:02:00.766Z,94883.00
2023-04-26T09:03:00.850Z,94883.00
2023-04-26T09:04:01.027Z,94883.00
2023-04-26T09:05:01.039Z,94881.00
2023-04-26T09:06:03.187Z,94877.00
2023-04-26T09:07:00.947Z,94877.00
2023-04-26T09:08:00.907Z,94875.00
2023-04-26T09:09:00.896Z,94875.00
2023-04-26T09:10:00.909Z,94873.00
2023-04-26T09:11:00.985Z,94875.00
2023-04-26T09:12:00.876Z,94875.00
2023-04-26T09:13:00.888Z,94873.00
2023-04-26T09:14:00.857Z,94873.00
2023-04-26T09:15:00.882Z,94877.00
2023-04-26T09:16:02.696Z,94877.00
2023-04-26T09:17:00.838Z,94873.00
2023-04-26T09:18:00.888Z,94867.00
2023-04-26T09:19:00.847Z,94867.00
2023-04-26T09:20:00.999Z,94867.00
2023-04-26T09:21:00.832Z,94869.00
2023-04-26T09:22:00.836Z,94863.00
2023-04-26T09:23:00.806Z,94863.00
2023-04-26T09:24:00.833Z,94856.00
2023-04-26T09:25:00.836Z,94862.00
2023-04-26T09:26:00.781Z,94856.00
2023-04-26T09:27:00.778Z,94854.00
2023-04-26T09:28:00.764Z,94852.00
2023-04-26T09:29:00.792Z,94848.00
2023-04-26T09:30:00.746Z,94852.00
2023-04-26T09:31:00.996Z,94852.00
2023-04-26T09:32:00.804Z,94848.00
2023-04-26T09:33:00.730Z,94848.00
2023-04-26T09:34:00.723Z,94852.00
2023-04-26T09:35:00.725Z,94846.00
2023-04-26T09:36:01.152Z,94844.00
2023-04-26T09:37:00.689Z,94842.00
2023-04-26T09:38:04.258Z,94844.00
2023-04-26T09:39:01.692Z,94840.00
2023-04-26T09:40:00.662Z,94840.00
2023-04-26T09:41:00.992Z,94844.00
2023-04-26T09:42:00.662Z,94840.00
2023-04-26T09:43:00.695Z,94844.00
2023-04-26T09:44:00.647Z,94840.00
2023-04-26T09:45:00.649Z,94838.00
2023-04-26T09:46:01.020Z,94838.00
2023-04-26T09:47:00.716Z,94842.00
2023-04-26T09:48:00.723Z,94838.00
2023-04-26T09:49:00.746Z,94836.00
2023-04-26T09:50:00.788Z,94836.00
2023-04-26T09:51:00.844Z,94834.00
2023-04-26T09:52:00.890Z,94832.00
2023-04-26T09:53:00.932Z,94830.00
2023-04-26T09:54:00.979Z,94830.00
2023-04-26T09:55:00.994Z,94830.00
2023-04-26T09:56:01.523Z,94836.00
2023-04-26T09:57:01.099Z,94832.00
2023-04-26T09:58:01.105Z,94834.00
2023-04-26T09:59:01.103Z,94830.00
2023-04-26T10:00:01.183Z,94832.00
2023-04-26T10:01:01.498Z,94832.00
2023-04-26T10:02:01.144Z,94828.00
2023-04-26T10:03:01.272Z,94826.00
2023-04-26T10:04:01.302Z,94828.00
2023-04-26T10:05:01.134Z,94828.00
2023-04-26T10:06:01.183Z,94824.00
2023-04-26T10:07:01.116Z,94826.00
2023-04-26T10:08:01.139Z,94822.00
2023-04-26T10:09:01.144Z,94824.00
2023-04-26T10:10:01.139Z,94826.00
2023-04-26T10:11:01.498Z,94822.00
2023-04-26T10:12:01.125Z,94822.00
2023-04-26T10:13:01.120Z,94822.00
2023-04-26T10:14:01.132Z,94822.00
2023-04-26T10:15:01.134Z,94820.00
2023-04-26T10:16:01.334Z,94816.00
2023-04-26T10:17:01.217Z,94816.00
2023-04-26T10:18:01.299Z,94816.00
2023-04-26T10:19:01.214Z,94818.00
2023-04-26T10:20:01.216Z,94816.00
2023-04-26T10:21:01.209Z,94814.00
2023-04-26T10:22:01.243Z,94812.00
2023-04-26T10:23:01.300Z,94808.00
2023-04-26T10:24:01.288Z,94805.00
2023-04-26T10:25:01.364Z,94810.00
2023-04-26T10:26:01.523Z,94808.00
2023-04-26T10:27:01.472Z,94808.00
2023-04-26T10:28:01.565Z,94807.00
2023-04-26T10:29:03.324Z,94808.00
2023-04-26T10:30:01.662Z,94808.00
2023-04-26T10:31:02.017Z,94807.00
2023-04-26T10:32:01.930Z,94807.00
2023-04-26T10:33:01.842Z,94805.00
2023-04-26T10:34:01.909Z,94803.00
2023-04-26T10:35:01.936Z,94801.00
2023-04-26T10:36:02.024Z,94797.00
2023-04-26T10:37:02.011Z,94799.00
2023-04-26T10:38:02.174Z,94799.00
2023-04-26T10:39:02.149Z,94801.00
2023-04-26T10:40:02.208Z,94801.00
2023-04-26T10:41:02.513Z,94797.00
2023-04-26T10:42:02.299Z,94797.00
2023-04-26T10:43:02.388Z,94793.00
2023-04-26T10:44:02.401Z,94791.00
2023-04-26T10:45:02.477Z,94789.00
2023-04-26T10:46:03.117Z,94787.00
2023-04-26T10:47:02.600Z,94787.00
2023-04-26T10:48:02.737Z,94785.00
2023-04-26T10:49:02.680Z,94779.00
2023-04-26T10:50:05.129Z,94777.00
2023-04-26T10:51:03.007Z,94777.00
2023-04-26T10:52:02.743Z,94777.00
2023-04-26T10:53:02.763Z,94773.00
2023-04-26T10:54:02.727Z,94775.00
2023-04-26T10:55:02.792Z,94769.00
2023-04-26T10:56:03.075Z,94767.00
2023-04-26T10:57:02.712Z,94765.00
2023-04-26T10:58:02.692Z,94763.00
2023-04-26T10:59:02.809Z,94765.00
2023-04-26T11:00:02.685Z,94765.00
2023-04-26T11:01:03.076Z,94765.00
2023-04-26T11:02:02.681Z,94767.00
2023-04-26T11:03:02.793Z,94769.00
2023-04-26T11:04:02.694Z,94765.00
2023-04-26T11:05:02.727Z,94763.00
2023-04-26T11:06:03.995Z,94763.00
2023-04-26T11:07:02.604Z,94761.00
2023-04-26T11:08:02.611Z,94754.00
2023-04-26T11:09:02.659Z,94752.00
2023-04-26T11:10:02.596Z,94752.00
2023-04-26T11:11:02.647Z,94752.00
2023-04-26T11:12:02.688Z,94750.00
2023-04-26T11:13:02.592Z,94748.00
2023-04-26T11:14:02.586Z,94744.00
2023-04-26T11:15:02.598Z,94746.00
2023-04-26T11:16:03.121Z,94744.00
2023-04-26T11:17:02.596Z,94742.00
2023-04-26T11:18:02.635Z,94742.00
2023-04-26T11:19:02.574Z,94740.00
2023-04-26T11:20:02.546Z,94742.00
2023-04-26T11:21:03.039Z,94736.00
2023-04-26T11:22:02.555Z,94736.00
2023-04-26T11:23:02.516Z,94732.00
2023-04-26T11:24:02.541Z,94734.00
2023-04-26T11:25:02.537Z,94732.00
2023-04-26T11:26:02.560Z,94730.00
2023-04-26T11:27:02.486Z,94726.00
2023-04-26T11:28:02.519Z,94724.00
2023-04-26T11:29:02.501Z,94722.00
2023-04-26T11:30:02.491Z,94722.00
2023-04-26T11:31:02.516Z,94720.00
2023-04-26T11:32:02.494Z,94716.00
2023-04-26T11:33:02.495Z,94714.00
2023-04-26T11:34:02.483Z,94716.00
2023-04-26T11:35:02.456Z,94716.00
2023-04-26T11:36:02.440Z,94714.00
2023-04-26T11:37:02.561Z,94714.00
2023-04-26T11:38:02.461Z,94711.00
2023-04-26T11:39:02.444Z,94713.00
2023-04-26T11:40:02.453Z,94713.00
2023-04-26T11:41:02.436Z,94707.00
2023-04-26T11:42:02.562Z,94705.00
2023-04-26T11:43:02.402Z,94711.00
2023-04-26T11:44:02.413Z,94713.00
2023-04-26T11:45:02.381Z,94714.00
2023-04-26T11:46:02.384Z,94709.00